sensor_id;sensor_type;location;lat;lon;timestamp;temperature;humidity
45785;DHT22;31489;51.404;5.474;2023-04-06T00:00:51;9.70;48.90
45785;DHT22;31489;51.404;5.474;2023-04-06T00:03:17;9.70;49.00
45785;DHT22;31489;51.404;5.474;2023-04-06T00:05:43;9.70;49.10
45785;DHT22;31489;51.404;5.474;2023-04-06T00:08:09;9.70;49.10
45785;DHT22;31489;51.404;5.474;2023-04-06T00:10:35;9.60;49.00
45785;DHT22;31489;51.404;5.474;2023-04-06T00:13:00;9.60;49.10
45785;DHT22;31489;51.404;5.474;2023-04-06T00:15:26;9.60;49.20
45785;DHT22;31489;51.404;5.474;2023-04-06T00:17:53;9.60;49.20
45785;DHT22;31489;51.404;5.474;2023-04-06T00:20:19;9.50;49.10
45785;DHT22;31489;51.404;5.474;2023-04-06T00:22:45;9.50;49.10
45785;DHT22;31489;51.404;5.474;2023-04-06T00:25:13;9.50;49.20
45785;DHT22;31489;51.404;5.474;2023-04-06T00:27:41;9.50;49.30
45785;DHT22;31489;51.404;5.474;2023-04-06T00:30:07;9.40;49.30
45785;DHT22;31489;51.404;5.474;2023-04-06T00:32:34;9.40;49.30
45785;DHT22;31489;51.404;5.474;2023-04-06T00:35:01;9.40;49.40
45785;DHT22;31489;51.404;5.474;2023-04-06T00:37:27;9.30;49.40
45785;DHT22;31489;51.404;5.474;2023-04-06T00:39:52;9.30;49.50
45785;DHT22;31489;51.404;5.474;2023-04-06T00:42:18;9.30;49.60
45785;DHT22;31489;51.404;5.474;2023-04-06T00:45:00;9.30;49.60
45785;DHT22;31489;51.404;5.474;2023-04-06T00:47:26;9.20;49.50
45785;DHT22;31489;51.404;5.474;2023-04-06T00:49:53;9.30;49.60
45785;DHT22;31489;51.404;5.474;2023-04-06T00:52:19;9.20;49.40
45785;DHT22;31489;51.404;5.474;2023-04-06T00:54:45;9.20;49.30
45785;DHT22;31489;51.404;5.474;2023-04-06T00:57:14;9.10;49.10
45785;DHT22;31489;51.404;5.474;2023-04-06T00:59:40;9.10;49.10
45785;DHT22;31489;51.404;5.474;2023-04-06T01:02:06;9.10;49.20
45785;DHT22;31489;51.404;5.474;2023-04-06T01:04:33;9.10;49.40
45785;DHT22;31489;51.404;5.474;2023-04-06T01:07:00;9.10;49.50
45785;DHT22;31489;51.404;5.474;2023-04-06T01:09:27;9.10;49.50
45785;DHT22;31489;51.404;5.474;2023-04-06T01:11:54;9.00;49.60
45785;DHT22;31489;51.404;5.474;2023-04-06T01:14:21;9.00;49.50
45785;DHT22;31489;51.404;5.474;2023-04-06T01:16:46;9.00;49.50
45785;DHT22;31489;51.404;5.474;2023-04-06T01:19:12;9.00;49.50
45785;DHT22;31489;51.404;5.474;2023-04-06T01:21:39;9.00;49.50
45785;DHT22;31489;51.404;5.474;2023-04-06T01:24:06;9.00;49.60
45785;DHT22;31489;51.404;5.474;2023-04-06T01:26:32;9.00;49.60
45785;DHT22;31489;51.404;5.474;2023-04-06T01:28:58;8.90;49.60
45785;DHT22;31489;51.404;5.474;2023-04-06T01:31:24;8.90;49.70
45785;DHT22;31489;51.404;5.474;2023-04-06T01:33:50;8.90;49.70
45785;DHT22;31489;51.404;5.474;2023-04-06T01:36:16;8.90;49.70
45785;DHT22;31489;51.404;5.474;2023-04-06T01:38:41;8.80;49.70
45785;DHT22;31489;51.404;5.474;2023-04-06T01:41:07;8.80;49.90
45785;DHT22;31489;51.404;5.474;2023-04-06T01:43:33;8.80;50.00
45785;DHT22;31489;51.404;5.474;2023-04-06T01:45:59;8.80;49.90
45785;DHT22;31489;51.404;5.474;2023-04-06T01:48:26;8.80;50.00
45785;DHT22;31489;51.404;5.474;2023-04-06T01:50:52;8.80;50.10
45785;DHT22;31489;51.404;5.474;2023-04-06T01:53:18;8.90;50.20
45785;DHT22;31489;51.404;5.474;2023-04-06T01:55:43;8.90;50.20
45785;DHT22;31489;51.404;5.474;2023-04-06T01:58:09;8.90;50.20
45785;DHT22;31489;51.404;5.474;2023-04-06T02:00:35;8.90;50.20
45785;DHT22;31489;51.404;5.474;2023-04-06T02:03:01;8.90;50.20
45785;DHT22;31489;51.404;5.474;2023-04-06T02:05:27;8.90;50.20
45785;DHT22;31489;51.404;5.474;2023-04-06T02:07:53;8.90;50.30
45785;DHT22;31489;51.404;5.474;2023-04-06T02:10:19;8.90;50.40
45785;DHT22;31489;51.404;5.474;2023-04-06T02:12:44;8.90;50.50
45785;DHT22;31489;51.404;5.474;2023-04-06T02:15:10;8.90;50.40
45785;DHT22;31489;51.404;5.474;2023-04-06T02:17:38;9.00;50.40
45785;DHT22;31489;51.404;5.474;2023-04-06T02:20:05;9.00;50.40
45785;DHT22;31489;51.404;5.474;2023-04-06T02:22:30;9.00;50.50
45785;DHT22;31489;51.404;5.474;2023-04-06T02:24:56;9.00;50.60
45785;DHT22;31489;51.404;5.474;2023-04-06T02:27:22;9.00;50.60
45785;DHT22;31489;51.404;5.474;2023-04-06T02:29:47;9.00;50.70
45785;DHT22;31489;51.404;5.474;2023-04-06T02:32:13;9.10;50.70
45785;DHT22;31489;51.404;5.474;2023-04-06T02:34:38;9.10;50.60
45785;DHT22;31489;51.404;5.474;2023-04-06T02:37:04;9.10;50.70
45785;DHT22;31489;51.404;5.474;2023-04-06T02:39:30;9.10;50.80
45785;DHT22;31489;51.404;5.474;2023-04-06T02:41:55;9.10;50.70
45785;DHT22;31489;51.404;5.474;2023-04-06T02:44:22;9.10;50.90
45785;DHT22;31489;51.404;5.474;2023-04-06T02:46:48;9.10;51.40
45785;DHT22;31489;51.404;5.474;2023-04-06T02:49:13;9.20;51.00
45785;DHT22;31489;51.404;5.474;2023-04-06T02:51:39;9.20;51.10
45785;DHT22;31489;51.404;5.474;2023-04-06T02:54:05;9.20;51.10
45785;DHT22;31489;51.404;5.474;2023-04-06T02:56:31;9.20;51.10
45785;DHT22;31489;51.404;5.474;2023-04-06T02:58:56;9.20;51.10
45785;DHT22;31489;51.404;5.474;2023-04-06T03:01:22;9.20;51.20
45785;DHT22;31489;51.404;5.474;2023-04-06T03:03:48;9.30;51.20
45785;DHT22;31489;51.404;5.474;2023-04-06T03:06:13;9.30;51.10
45785;DHT22;31489;51.404;5.474;2023-04-06T03:08:39;9.30;51.30
45785;DHT22;31489;51.404;5.474;2023-04-06T03:11:05;9.30;51.20
45785;DHT22;31489;51.404;5.474;2023-04-06T03:13:31;9.40;51.20
45785;DHT22;31489;51.404;5.474;2023-04-06T03:15:56;9.40;50.90
45785;DHT22;31489;51.404;5.474;2023-04-06T03:18:23;9.40;51.10
45785;DHT22;31489;51.404;5.474;2023-04-06T03:20:49;9.40;51.00
45785;DHT22;31489;51.404;5.474;2023-04-06T03:23:15;9.40;51.10
45785;DHT22;31489;51.404;5.474;2023-04-06T03:25:41;9.50;51.20
45785;DHT22;31489;51.404;5.474;2023-04-06T03:28:06;9.50;51.20
45785;DHT22;31489;51.404;5.474;2023-04-06T03:30:33;9.50;50.90
45785;DHT22;31489;51.404;5.474;2023-04-06T03:32:59;9.50;51.00
45785;DHT22;31489;51.404;5.474;2023-04-06T03:35:25;9.50;51.00
45785;DHT22;31489;51.404;5.474;2023-04-06T03:37:51;9.50;51.00
45785;DHT22;31489;51.404;5.474;2023-04-06T03:40:17;9.60;51.10
45785;DHT22;31489;51.404;5.474;2023-04-06T03:42:42;9.60;51.00
45785;DHT22;31489;51.404;5.474;2023-04-06T03:45:08;9.60;51.00
45785;DHT22;31489;51.404;5.474;2023-04-06T03:47:34;9.60;50.90
45785;DHT22;31489;51.404;5.474;2023-04-06T03:50:00;9.60;50.80
45785;DHT22;31489;51.404;5.474;2023-04-06T03:52:25;9.60;50.90
45785;DHT22;31489;51.404;5.474;2023-04-06T03:54:51;9.60;51.00
45785;DHT22;31489;51.404;5.474;2023-04-06T03:57:17;9.60;50.90
45785;DHT22;31489;51.404;5.474;2023-04-06T03:59:43;9.60;51.10
45785;DHT22;31489;51.404;5.474;2023-04-06T04:02:09;9.60;51.20
45785;DHT22;31489;51.404;5.474;2023-04-06T04:04:34;9.60;51.10
45785;DHT22;31489;51.404;5.474;2023-04-06T04:07:00;9.60;51.20
45785;DHT22;31489;51.404;5.474;2023-04-06T04:09:25;9.50;51.30
45785;DHT22;31489;51.404;5.474;2023-04-06T04:11:51;9.50;51.30
45785;DHT22;31489;51.404;5.474;2023-04-06T04:14:17;9.50;51.30
45785;DHT22;31489;51.404;5.474;2023-04-06T04:16:42;9.50;51.50
45785;DHT22;31489;51.404;5.474;2023-04-06T04:19:08;9.50;51.20
45785;DHT22;31489;51.404;5.474;2023-04-06T04:21:33;9.50;51.40
45785;DHT22;31489;51.404;5.474;2023-04-06T04:23:59;9.50;51.50
45785;DHT22;31489;51.404;5.474;2023-04-06T04:26:25;9.50;51.30
45785;DHT22;31489;51.404;5.474;2023-04-06T04:28:50;9.50;51.50
45785;DHT22;31489;51.404;5.474;2023-04-06T04:31:16;9.50;51.30
45785;DHT22;31489;51.404;5.474;2023-04-06T04:33:47;9.50;51.20
45785;DHT22;31489;51.404;5.474;2023-04-06T04:36:12;9.50;51.40
45785;DHT22;31489;51.404;5.474;2023-04-06T04:38:38;9.50;51.20
45785;DHT22;31489;51.404;5.474;2023-04-06T04:41:03;9.50;51.20
45785;DHT22;31489;51.404;5.474;2023-04-06T04:43:29;9.50;51.30
45785;DHT22;31489;51.404;5.474;2023-04-06T04:45:55;9.50;51.30
45785;DHT22;31489;51.404;5.474;2023-04-06T04:48:20;9.50;51.50
45785;DHT22;31489;51.404;5.474;2023-04-06T04:50:46;9.50;51.40
45785;DHT22;31489;51.404;5.474;2023-04-06T04:53:11;9.50;51.30
45785;DHT22;31489;51.404;5.474;2023-04-06T04:55:37;9.50;51.30
45785;DHT22;31489;51.404;5.474;2023-04-06T04:58:03;9.40;51.40
45785;DHT22;31489;51.404;5.474;2023-04-06T05:00:28;9.40;51.40
45785;DHT22;31489;51.404;5.474;2023-04-06T05:02:54;9.40;51.40
45785;DHT22;31489;51.404;5.474;2023-04-06T05:05:19;9.40;51.30
45785;DHT22;31489;51.404;5.474;2023-04-06T05:07:45;9.40;51.40
45785;DHT22;31489;51.404;5.474;2023-04-06T05:10:11;9.40;51.40
45785;DHT22;31489;51.404;5.474;2023-04-06T05:12:37;9.40;51.50
45785;DHT22;31489;51.404;5.474;2023-04-06T05:15:03;9.40;51.40
45785;DHT22;31489;51.404;5.474;2023-04-06T05:17:29;9.40;52.00
45785;DHT22;31489;51.404;5.474;2023-04-06T05:19:54;9.40;51.40
45785;DHT22;31489;51.404;5.474;2023-04-06T05:22:20;9.40;51.30
45785;DHT22;31489;51.404;5.474;2023-04-06T05:24:46;9.40;51.30
45785;DHT22;31489;51.404;5.474;2023-04-06T05:27:12;9.40;51.30
45785;DHT22;31489;51.404;5.474;2023-04-06T05:29:37;9.40;51.30
45785;DHT22;31489;51.404;5.474;2023-04-06T05:32:03;9.40;51.40
45785;DHT22;31489;51.404;5.474;2023-04-06T05:34:29;9.40;51.40
45785;DHT22;31489;51.404;5.474;2023-04-06T05:36:54;9.40;51.40
45785;DHT22;31489;51.404;5.474;2023-04-06T05:39:20;9.40;51.40
45785;DHT22;31489;51.404;5.474;2023-04-06T05:41:46;9.40;51.50
45785;DHT22;31489;51.404;5.474;2023-04-06T05:44:11;9.40;51.60
45785;DHT22;31489;51.404;5.474;2023-04-06T05:46:37;9.40;51.60
45785;DHT22;31489;51.404;5.474;2023-04-06T05:49:03;9.40;51.70
45785;DHT22;31489;51.404;5.474;2023-04-06T05:51:28;9.40;51.70
45785;DHT22;31489;51.404;5.474;2023-04-06T05:53:54;9.40;51.70
45785;DHT22;31489;51.404;5.474;2023-04-06T05:56:19;9.40;51.60
45785;DHT22;31489;51.404;5.474;2023-04-06T05:58:46;9.40;51.60
45785;DHT22;31489;51.404;5.474;2023-04-06T06:01:11;9.50;51.60
45785;DHT22;31489;51.404;5.474;2023-04-06T06:03:37;9.40;51.50
45785;DHT22;31489;51.404;5.474;2023-04-06T06:06:03;9.50;51.60
45785;DHT22;31489;51.404;5.474;2023-04-06T06:08:29;9.50;51.50
45785;DHT22;31489;51.404;5.474;2023-04-06T06:10:55;9.50;51.50
45785;DHT22;31489;51.404;5.474;2023-04-06T06:13:21;9.50;51.60
45785;DHT22;31489;51.404;5.474;2023-04-06T06:15:48;9.50;51.50
45785;DHT22;31489;51.404;5.474;2023-04-06T06:18:14;9.50;51.50
45785;DHT22;31489;51.404;5.474;2023-04-06T06:20:39;9.60;51.40
45785;DHT22;31489;51.404;5.474;2023-04-06T06:23:05;9.60;51.30
45785;DHT22;31489;51.404;5.474;2023-04-06T06:25:31;9.60;51.50
45785;DHT22;31489;51.404;5.474;2023-04-06T06:27:57;9.60;51.30
45785;DHT22;31489;51.404;5.474;2023-04-06T06:30:23;9.70;51.10
45785;DHT22;31489;51.404;5.474;2023-04-06T06:32:50;9.70;51.10
45785;DHT22;31489;51.404;5.474;2023-04-06T06:35:16;9.80;51.10
45785;DHT22;31489;51.404;5.474;2023-04-06T06:37:41;9.80;51.20
45785;DHT22;31489;51.404;5.474;2023-04-06T06:40:08;9.80;50.90
45785;DHT22;31489;51.404;5.474;2023-04-06T06:42:34;9.80;50.70
45785;DHT22;31489;51.404;5.474;2023-04-06T06:45:00;9.90;50.80
45785;DHT22;31489;51.404;5.474;2023-04-06T06:47:25;9.90;50.80
45785;DHT22;31489;51.404;5.474;2023-04-06T06:49:51;10.00;50.80
45785;DHT22;31489;51.404;5.474;2023-04-06T06:52:17;10.00;50.70
45785;DHT22;31489;51.404;5.474;2023-04-06T06:54:42;10.00;50.90
45785;DHT22;31489;51.404;5.474;2023-04-06T06:57:09;10.10;50.90
45785;DHT22;31489;51.404;5.474;2023-04-06T06:59:34;10.10;51.00
45785;DHT22;31489;51.404;5.474;2023-04-06T07:02:00;10.10;50.80
45785;DHT22;31489;51.404;5.474;2023-04-06T07:04:25;10.20;50.70
45785;DHT22;31489;51.404;5.474;2023-04-06T07:06:51;10.20;50.70
45785;DHT22;31489;51.404;5.474;2023-04-06T07:09:18;10.20;50.90
45785;DHT22;31489;51.404;5.474;2023-04-06T07:11:43;10.20;51.00
45785;DHT22;31489;51.404;5.474;2023-04-06T07:14:09;10.30;51.10
45785;DHT22;31489;51.404;5.474;2023-04-06T07:16:34;10.30;51.30
45785;DHT22;31489;51.404;5.474;2023-04-06T07:19:00;10.40;51.10
45785;DHT22;31489;51.404;5.474;2023-04-06T07:21:26;10.40;51.00
45785;DHT22;31489;51.404;5.474;2023-04-06T07:23:52;10.40;51.10
45785;DHT22;31489;51.404;5.474;2023-04-06T07:26:17;10.50;51.20
45785;DHT22;31489;51.404;5.474;2023-04-06T07:28:43;10.50;51.20
45785;DHT22;31489;51.404;5.474;2023-04-06T07:31:09;10.50;51.10
45785;DHT22;31489;51.404;5.474;2023-04-06T07:33:35;10.60;51.20
45785;DHT22;31489;51.404;5.474;2023-04-06T07:36:00;10.70;51.10
45785;DHT22;31489;51.404;5.474;2023-04-06T07:38:26;10.70;51.00
45785;DHT22;31489;51.404;5.474;2023-04-06T07:40:51;10.70;50.90
45785;DHT22;31489;51.404;5.474;2023-04-06T07:43:17;10.80;51.00
45785;DHT22;31489;51.404;5.474;2023-04-06T07:45:42;10.80;50.80
45785;DHT22;31489;51.404;5.474;2023-04-06T07:48:08;10.80;50.60
45785;DHT22;31489;51.404;5.474;2023-04-06T07:50:34;10.90;50.60
45785;DHT22;31489;51.404;5.474;2023-04-06T07:52:59;10.90;50.60
45785;DHT22;31489;51.404;5.474;2023-04-06T07:55:26;10.90;50.60
45785;DHT22;31489;51.404;5.474;2023-04-06T07:57:51;11.00;51.30
45785;DHT22;31489;51.404;5.474;2023-04-06T08:00:17;11.00;50.60
45785;DHT22;31489;51.404;5.474;2023-04-06T08:02:43;11.00;50.50
45785;DHT22;31489;51.404;5.474;2023-04-06T08:05:09;11.10;50.60
45785;DHT22;31489;51.404;5.474;2023-04-06T08:07:34;11.10;50.50
45785;DHT22;31489;51.404;5.474;2023-04-06T08:10:01;11.20;50.30
45785;DHT22;31489;51.404;5.474;2023-04-06T08:12:27;11.20;50.40
45785;DHT22;31489;51.404;5.474;2023-04-06T08:14:52;11.20;50.40
45785;DHT22;31489;51.404;5.474;2023-04-06T08:17:19;11.20;50.70
45785;DHT22;31489;51.404;5.474;2023-04-06T08:19:44;11.30;50.70
45785;DHT22;31489;51.404;5.474;2023-04-06T08:22:11;11.30;50.70
45785;DHT22;31489;51.404;5.474;2023-04-06T08:24:37;11.30;50.50
45785;DHT22;31489;51.404;5.474;2023-04-06T08:27:02;11.40;50.70
45785;DHT22;31489;51.404;5.474;2023-04-06T08:29:28;11.40;50.90
45785;DHT22;31489;51.404;5.474;2023-04-06T08:31:54;11.40;50.60
45785;DHT22;31489;51.404;5.474;2023-04-06T08:34:20;11.50;50.70
45785;DHT22;31489;51.404;5.474;2023-04-06T08:36:46;11.50;50.90
45785;DHT22;31489;51.404;5.474;2023-04-06T08:39:12;11.60;50.80
45785;DHT22;31489;51.404;5.474;2023-04-06T08:41:41;11.60;50.80
45785;DHT22;31489;51.404;5.474;2023-04-06T08:44:07;11.60;50.80
45785;DHT22;31489;51.404;5.474;2023-04-06T08:46:32;11.70;50.90
45785;DHT22;31489;51.404;5.474;2023-04-06T08:49:00;11.70;50.80
45785;DHT22;31489;51.404;5.474;2023-04-06T08:51:27;11.80;50.80
45785;DHT22;31489;51.404;5.474;2023-04-06T08:53:57;11.80;50.80
45785;DHT22;31489;51.404;5.474;2023-04-06T08:56:24;11.80;50.90
45785;DHT22;31489;51.404;5.474;2023-04-06T08:58:50;11.90;51.00
45785;DHT22;31489;51.404;5.474;2023-04-06T09:01:20;11.90;51.10
45785;DHT22;31489;51.404;5.474;2023-04-06T09:03:46;12.00;51.40
45785;DHT22;31489;51.404;5.474;2023-04-06T09:06:13;12.10;51.10
45785;DHT22;31489;51.404;5.474;2023-04-06T09:08:40;12.10;51.30
45785;DHT22;31489;51.404;5.474;2023-04-06T09:11:06;12.10;51.00
45785;DHT22;31489;51.404;5.474;2023-04-06T09:13:47;12.20;51.10
45785;DHT22;31489;51.404;5.474;2023-04-06T09:16:13;12.20;50.70
45785;DHT22;31489;51.404;5.474;2023-04-06T09:18:39;12.20;51.10
45785;DHT22;31489;51.404;5.474;2023-04-06T09:21:06;12.20;51.30
45785;DHT22;31489;51.404;5.474;2023-04-06T09:23:32;12.30;51.40
45785;DHT22;31489;51.404;5.474;2023-04-06T09:26:10;12.30;51.40
45785;DHT22;31489;51.404;5.474;2023-04-06T09:31:13;12.30;51.60
45785;DHT22;31489;51.404;5.474;2023-04-06T09:33:43;12.40;52.00
45785;DHT22;31489;51.404;5.474;2023-04-06T09:36:09;12.30;51.90
45785;DHT22;31489;51.404;5.474;2023-04-06T09:38:39;12.40;52.20
45785;DHT22;31489;51.404;5.474;2023-04-06T09:41:24;12.40;52.70
45785;DHT22;31489;51.404;5.474;2023-04-06T09:43:52;12.40;52.40
45785;DHT22;31489;51.404;5.474;2023-04-06T09:46:21;12.40;52.50
45785;DHT22;31489;51.404;5.474;2023-04-06T09:48:48;12.50;52.60
45785;DHT22;31489;51.404;5.474;2023-04-06T09:51:15;12.50;52.80
45785;DHT22;31489;51.404;5.474;2023-04-06T09:53:42;12.50;52.60
45785;DHT22;31489;51.404;5.474;2023-04-06T09:56:12;12.50;52.80
45785;DHT22;31489;51.404;5.474;2023-04-06T09:58:43;12.60;53.10
45785;DHT22;31489;51.404;5.474;2023-04-06T10:01:15;12.60;53.10
45785;DHT22;31489;51.404;5.474;2023-04-06T10:03:52;12.60;53.60
45785;DHT22;31489;51.404;5.474;2023-04-06T10:06:23;12.60;54.10
45785;DHT22;31489;51.404;5.474;2023-04-06T10:08:51;12.60;54.20
45785;DHT22;31489;51.404;5.474;2023-04-06T10:11:19;12.60;54.20
45785;DHT22;31489;51.404;5.474;2023-04-06T10:13:47;12.50;54.50
45785;DHT22;31489;51.404;5.474;2023-04-06T10:16:14;12.50;55.00
45785;DHT22;31489;51.404;5.474;2023-04-06T10:18:46;12.40;54.90
45785;DHT22;31489;51.404;5.474;2023-04-06T10:21:15;12.40;55.40
45785;DHT22;31489;51.404;5.474;2023-04-06T10:23:51;12.30;55.70
45785;DHT22;31489;51.404;5.474;2023-04-06T10:26:20;12.30;56.30
45785;DHT22;31489;51.404;5.474;2023-04-06T10:28:48;12.30;56.60
45785;DHT22;31489;51.404;5.474;2023-04-06T10:31:14;12.20;56.60
45785;DHT22;31489;51.404;5.474;2023-04-06T10:33:40;12.30;56.60
45785;DHT22;31489;51.404;5.474;2023-04-06T10:36:13;12.30;56.60
45785;DHT22;31489;51.404;5.474;2023-04-06T10:38:41;12.30;57.10
45785;DHT22;31489;51.404;5.474;2023-04-06T10:41:08;12.30;57.50
45785;DHT22;31489;51.404;5.474;2023-04-06T10:43:35;12.30;57.60
45785;DHT22;31489;51.404;5.474;2023-04-06T10:46:02;12.30;57.80
45785;DHT22;31489;51.404;5.474;2023-04-06T10:48:44;12.40;57.90
45785;DHT22;31489;51.404;5.474;2023-04-06T10:51:18;12.40;58.50
45785;DHT22;31489;51.404;5.474;2023-04-06T10:53:47;12.30;58.30
45785;DHT22;31489;51.404;5.474;2023-04-06T10:56:15;12.30;58.30
45785;DHT22;31489;51.404;5.474;2023-04-06T10:58:45;12.30;58.40
45785;DHT22;31489;51.404;5.474;2023-04-06T11:01:21;12.30;59.20
45785;DHT22;31489;51.404;5.474;2023-04-06T11:03:52;12.30;59.20
45785;DHT22;31489;51.404;5.474;2023-04-06T11:06:23;12.20;59.60
45785;DHT22;31489;51.404;5.474;2023-04-06T11:08:50;12.20;59.90
45785;DHT22;31489;51.404;5.474;2023-04-06T11:11:18;12.20;60.10
45785;DHT22;31489;51.404;5.474;2023-04-06T11:13:51;12.10;59.90
45785;DHT22;31489;51.404;5.474;2023-04-06T11:16:25;12.10;60.70
45785;DHT22;31489;51.404;5.474;2023-04-06T11:18:53;12.00;61.00
45785;DHT22;31489;51.404;5.474;2023-04-06T11:21:29;12.00;61.00
45785;DHT22;31489;51.404;5.474;2023-04-06T11:24:22;12.00;61.10
45785;DHT22;31489;51.404;5.474;2023-04-06T11:26:56;11.90;62.60
45785;DHT22;31489;51.404;5.474;2023-04-06T11:29:24;12.00;62.50
45785;DHT22;31489;51.404;5.474;2023-04-06T11:31:51;11.90;62.50
45785;DHT22;31489;51.404;5.474;2023-04-06T11:34:19;11.90;62.70
45785;DHT22;31489;51.404;5.474;2023-04-06T11:36:47;11.90;63.30
45785;DHT22;31489;51.404;5.474;2023-04-06T11:39:17;11.90;63.60
45785;DHT22;31489;51.404;5.474;2023-04-06T11:41:47;11.80;64.00
45785;DHT22;31489;51.404;5.474;2023-04-06T11:44:13;11.90;65.00
45785;DHT22;31489;51.404;5.474;2023-04-06T11:46:51;11.90;64.60
45785;DHT22;31489;51.404;5.474;2023-04-06T11:49:17;11.90;65.90
45785;DHT22;31489;51.404;5.474;2023-04-06T11:51:42;11.90;65.20
45785;DHT22;31489;51.404;5.474;2023-04-06T11:54:08;12.00;65.70
45785;DHT22;31489;51.404;5.474;2023-04-06T11:56:34;12.00;65.90
45785;DHT22;31489;51.404;5.474;2023-04-06T11:58:59;12.00;65.90
45785;DHT22;31489;51.404;5.474;2023-04-06T12:01:26;12.10;65.90
45785;DHT22;31489;51.404;5.474;2023-04-06T12:03:52;12.10;65.90
45785;DHT22;31489;51.404;5.474;2023-04-06T12:06:18;12.00;65.40
45785;DHT22;31489;51.404;5.474;2023-04-06T12:08:43;12.10;65.80
45785;DHT22;31489;51.404;5.474;2023-04-06T12:11:10;12.10;66.20
45785;DHT22;31489;51.404;5.474;2023-04-06T12:13:36;12.10;66.90
45785;DHT22;31489;51.404;5.474;2023-04-06T12:16:01;12.10;66.80
45785;DHT22;31489;51.404;5.474;2023-04-06T12:18:27;12.10;67.00
45785;DHT22;31489;51.404;5.474;2023-04-06T12:20:53;12.20;67.50
45785;DHT22;31489;51.404;5.474;2023-04-06T12:23:21;12.30;67.80
45785;DHT22;31489;51.404;5.474;2023-04-06T12:25:47;12.30;68.20
45785;DHT22;31489;51.404;5.474;2023-04-06T12:28:13;12.30;68.00
45785;DHT22;31489;51.404;5.474;2023-04-06T12:30:38;12.30;67.60
45785;DHT22;31489;51.404;5.474;2023-04-06T12:33:06;12.40;67.40
45785;DHT22;31489;51.404;5.474;2023-04-06T12:35:35;12.40;67.40
45785;DHT22;31489;51.404;5.474;2023-04-06T12:38:02;12.40;67.70
45785;DHT22;31489;51.404;5.474;2023-04-06T12:40:27;12.40;67.90
45785;DHT22;31489;51.404;5.474;2023-04-06T12:42:53;12.30;67.90
45785;DHT22;31489;51.404;5.474;2023-04-06T12:45:18;12.30;67.70
45785;DHT22;31489;51.404;5.474;2023-04-06T12:47:44;12.30;67.90
45785;DHT22;31489;51.404;5.474;2023-04-06T12:50:10;12.30;68.00
45785;DHT22;31489;51.404;5.474;2023-04-06T12:52:35;12.20;68.50
45785;DHT22;31489;51.404;5.474;2023-04-06T12:55:02;12.20;68.90
45785;DHT22;31489;51.404;5.474;2023-04-06T12:57:28;12.20;69.20
45785;DHT22;31489;51.404;5.474;2023-04-06T12:59:53;12.20;69.30
45785;DHT22;31489;51.404;5.474;2023-04-06T13:02:20;12.20;69.60
45785;DHT22;31489;51.404;5.474;2023-04-06T13:04:46;12.20;69.60
45785;DHT22;31489;51.404;5.474;2023-04-06T13:07:12;12.20;70.10
45785;DHT22;31489;51.404;5.474;2023-04-06T13:09:37;12.20;70.10
45785;DHT22;31489;51.404;5.474;2023-04-06T13:12:03;12.20;70.00
45785;DHT22;31489;51.404;5.474;2023-04-06T13:14:28;12.20;69.70
45785;DHT22;31489;51.404;5.474;2023-04-06T13:16:54;12.20;70.00
45785;DHT22;31489;51.404;5.474;2023-04-06T13:19:20;12.20;70.30
45785;DHT22;31489;51.404;5.474;2023-04-06T13:21:46;12.20;70.40
45785;DHT22;31489;51.404;5.474;2023-04-06T13:24:12;12.30;70.50
45785;DHT22;31489;51.404;5.474;2023-04-06T13:26:38;12.20;70.60
45785;DHT22;31489;51.404;5.474;2023-04-06T13:29:03;12.30;70.60
45785;DHT22;31489;51.404;5.474;2023-04-06T13:31:29;12.20;70.30
45785;DHT22;31489;51.404;5.474;2023-04-06T13:33:54;12.20;71.30
45785;DHT22;31489;51.404;5.474;2023-04-06T13:36:20;12.30;70.80
45785;DHT22;31489;51.404;5.474;2023-04-06T13:38:46;12.30;71.00
45785;DHT22;31489;51.404;5.474;2023-04-06T13:41:23;12.20;71.00
45785;DHT22;31489;51.404;5.474;2023-04-06T13:43:49;12.20;72.00
45785;DHT22;31489;51.404;5.474;2023-04-06T13:46:15;12.20;71.40
45785;DHT22;31489;51.404;5.474;2023-04-06T13:48:41;12.20;71.10
45785;DHT22;31489;51.404;5.474;2023-04-06T13:51:13;12.20;71.10
45785;DHT22;31489;51.404;5.474;2023-04-06T13:53:40;12.20;71.80
45785;DHT22;31489;51.404;5.474;2023-04-06T13:56:06;12.20;71.40
45785;DHT22;31489;51.404;5.474;2023-04-06T13:58:33;12.20;71.70
45785;DHT22;31489;51.404;5.474;2023-04-06T14:01:08;12.20;71.70
45785;DHT22;31489;51.404;5.474;2023-04-06T14:03:35;12.10;72.40
45785;DHT22;31489;51.404;5.474;2023-04-06T14:06:01;12.20;72.30
45785;DHT22;31489;51.404;5.474;2023-04-06T14:08:26;12.20;72.40
45785;DHT22;31489;51.404;5.474;2023-04-06T14:10:52;12.20;72.30
45785;DHT22;31489;51.404;5.474;2023-04-06T14:13:19;12.10;72.10
45785;DHT22;31489;51.404;5.474;2023-04-06T14:15:45;12.10;72.50
45785;DHT22;31489;51.404;5.474;2023-04-06T14:18:10;12.20;72.60
45785;DHT22;31489;51.404;5.474;2023-04-06T14:20:36;12.20;72.80
45785;DHT22;31489;51.404;5.474;2023-04-06T14:23:02;12.20;72.90
45785;DHT22;31489;51.404;5.474;2023-04-06T14:25:28;12.20;73.10
45785;DHT22;31489;51.404;5.474;2023-04-06T14:27:56;12.20;72.90
45785;DHT22;31489;51.404;5.474;2023-04-06T14:30:22;12.20;72.70
45785;DHT22;31489;51.404;5.474;2023-04-06T14:32:49;12.20;72.90
45785;DHT22;31489;51.404;5.474;2023-04-06T14:35:14;12.20;73.10
45785;DHT22;31489;51.404;5.474;2023-04-06T14:37:40;12.20;73.10
45785;DHT22;31489;51.404;5.474;2023-04-06T14:40:06;12.20;73.10
45785;DHT22;31489;51.404;5.474;2023-04-06T14:42:32;12.10;73.10
45785;DHT22;31489;51.404;5.474;2023-04-06T14:44:59;12.10;73.30
45785;DHT22;31489;51.404;5.474;2023-04-06T14:47:24;12.10;73.50
45785;DHT22;31489;51.404;5.474;2023-04-06T14:49:51;12.10;73.60
45785;DHT22;31489;51.404;5.474;2023-04-06T14:52:17;12.10;73.80
45785;DHT22;31489;51.404;5.474;2023-04-06T14:54:43;12.10;73.80
45785;DHT22;31489;51.404;5.474;2023-04-06T14:57:09;12.10;74.10
45785;DHT22;31489;51.404;5.474;2023-04-06T14:59:34;12.00;73.90
45785;DHT22;31489;51.404;5.474;2023-04-06T15:02:02;12.10;74.00
45785;DHT22;31489;51.404;5.474;2023-04-06T15:04:28;12.10;74.20
45785;DHT22;31489;51.404;5.474;2023-04-06T15:06:54;12.10;74.40
45785;DHT22;31489;51.404;5.474;2023-04-06T15:09:20;12.00;74.50
45785;DHT22;31489;51.404;5.474;2023-04-06T15:11:46;12.10;74.50
45785;DHT22;31489;51.404;5.474;2023-04-06T15:14:11;12.10;74.40
45785;DHT22;31489;51.404;5.474;2023-04-06T15:16:37;12.10;74.50
45785;DHT22;31489;51.404;5.474;2023-04-06T15:19:03;12.10;74.60
45785;DHT22;31489;51.404;5.474;2023-04-06T15:21:28;12.10;74.60
45785;DHT22;31489;51.404;5.474;2023-04-06T15:23:54;12.00;74.60
45785;DHT22;31489;51.404;5.474;2023-04-06T15:26:21;12.00;74.70
45785;DHT22;31489;51.404;5.474;2023-04-06T15:28:46;12.00;74.80
45785;DHT22;31489;51.404;5.474;2023-04-06T15:31:16;12.00;74.90
45785;DHT22;31489;51.404;5.474;2023-04-06T15:33:42;12.00;75.30
45785;DHT22;31489;51.404;5.474;2023-04-06T15:36:27;12.00;75.10